PBFO2: Black Fork Below Big Creek Nr Page, OK

Data processed at Tue May 21 2019 21:30


All information presented herein is the property of the government of the United States of America and may be revised or deleted at any time without prior notice.
Dissemination of this information without the expressed written consent of the Public Affairs Office, Tulsa District U.S. Army Corps of Engineers is strictly prohibited.
These data are gathered electronically and, as presented, have not undergone any form of quality control. These data are not guaranteed to be valid or correct.
Go to home page.
Go to station list.
Go to home page.

Downstream station:


Previous Day
Next Day
Current Day
    
SHEF ID:       PBFO2     Black Fork below Big Creek nr Pa
STATION TYPE:  

               PRECIP     STAGE  RIV-FLOW  BAT-LOAD
                   in        ft       cfs      volt
              Ccp-Rev   Ccp-Rev   Ccp-Rev   Ccp-Rev
(US/Central)
05/21 00:00      0.00      5.25       113     12.73
05/21 01:00      0.00      5.25       113     12.73
05/21 02:00      0.00      5.25       113     12.73
05/21 03:00      0.00      5.25       113     12.73
05/21 04:00      0.00      5.25       113     12.73
05/21 05:00      0.00      5.25       113     12.73
05/21 06:00      0.00      5.25       113     12.73
05/21 07:00      0.00      5.25       113     12.73
05/21 08:00      0.00      5.25       113     12.73
05/21 09:00      0.00      5.25       113     12.81
05/21 10:00      0.00      5.24       111     13.05
05/21 11:00      0.00      5.23       110     12.97
05/21 12:00      0.48      5.32       124     12.81
05/21 13:00      0.06      5.48       153     12.73
05/21 14:00      0.10      5.64       186      ----
05/21 15:00      0.06      5.80       223     12.97
05/21 16:00      0.01      5.92       253     13.05
05/21 17:00      0.01      6.03       283     14.00
05/21 18:00      0.00      6.10       303     13.68
05/21 19:00      0.00      6.18       327     13.68
05/21 20:00      0.01      6.30       364     13.29
05/21 21:00      0.00      6.49       427     12.97
05/21 22:00      ----      ----      ----      ----
05/21 23:00      ----      ----      ----      ----